METAR Data
IDs: Format: Raw Decoded Include TAF

Data at: 1317 UTC 26 Feb 2021

EBBE 261255Z 35009KT 9999 FEW030 09/01 Q1035 BLU BLU